Portada
METAR-TAF:

METAR-TAF

Aeroports :

Plzeň, República Txeca

latitud: 49-40-31N, longitud: 13-16-29E, altitud: 362 m

Observació

L'informe es va fer fa 27 minuts, a les 23:00 UTC
Vent 7 kt del Oest/Sud-Oest, variant entre Sud/Sud-Oest i Oest/Nord-Oest
Temperatura 2°C
Humitat 75%
Pressió 1004 hPa
Visibilitat 10 km o més
Núvols disperses a una alçada de 3200 ft
Cel ennuvolat a una alçada de 4000 ft
Cel cobert a una alçada de 6100 ft

METAR: LKLN 262300Z AUTO 24007KT 210V290 9999 SCT032 BKN040 OVC061 02/M02 Q1004

Hora: 00:27 (23:27 UTC)


TAF: manca

Observacions i pronòstics meteorològics de més de 4000 aeroports (METAR i TAF).

Les estacions disponibles són els punts grocs i vermells al mapa.

Posi el ratolí al punt desitjat per veure el nom de l'estació.

Feu clic per veure les observacions i els pronòstics meteorològics.

Per canviar el mapa: feu clic els botons verds amb una creu de color negre per apropar; al botó verd amb un guió per allunyar la imatge; o en les fletxes verdes per a mapes adjacents.


METAR-TAF: